Time;durP1;ratioP1;P1;durP2;ratioP2;P2;SDS_P1;SDS_P2;PMS_P1;PMS_P2;Temp;Humidity;BMP_temperature;BMP_pressure;BME280_temperature;BME280_humidity;BME280_pressure;Samples;Min_cycle;Max_cycle;Signal;HPM_P1;HPM_P2
2021/07/26 00:02:00;;;;;;;5.25;2.95;;;;;;;;;;4976539;28;20066;-75
2021/07/26 00:04:27;;;;;;;3.85;2.85;;;;;;;;;;4970346;28;20061;-75
2021/07/26 00:06:53;;;;;;;3.70;2.35;;;;;;;;;;4969043;28;20458;-74
2021/07/26 00:09:20;;;;;;;4.32;2.97;;;;;;;;;;4997309;28;20099;-75
2021/07/26 00:11:46;;;;;;;4.47;2.60;;;;;;;;;;5012350;28;20045;-75
2021/07/26 00:14:12;;;;;;;3.83;2.65;;;;;;;;;;4987395;28;20512;-76
2021/07/26 00:16:39;;;;;;;3.05;2.40;;;;;;;;;;4990649;28;20493;-75
2021/07/26 00:19:05;;;;;;;4.55;2.45;;;;;;;;;;4990810;28;20073;-76
2021/07/26 00:21:32;;;;;;;4.05;2.67;;;;;;;;;;4998377;28;20591;-75
2021/07/26 00:23:58;;;;;;;3.70;2.70;;;;;;;;;;5016412;28;20069;-75
2021/07/26 00:26:25;;;;;;;4.32;2.67;;;;;;;;;;4996389;28;20054;-75
2021/07/26 00:28:53;;;;;;;4.05;2.42;;;;;;;;;;4999963;28;20529;-76
2021/07/26 00:31:20;;;;;;;3.53;2.88;;;;;;;;;;5006437;28;20061;-75
2021/07/26 00:34:09;;;;;;;5.07;2.50;;;;;;;;;;5007975;28;20061;-76
2021/07/26 00:36:41;;;;;;;3.83;2.30;;;;;;;;;;5010806;28;20057;-75
2021/07/26 00:39:08;;;;;;;4.15;3.00;;;;;;;;;;5017170;28;20034;-75
2021/07/26 00:41:35;;;;;;;5.32;2.92;;;;;;;;;;5013172;28;20054;-75
2021/07/26 00:44:02;;;;;;;4.60;2.50;;;;;;;;;;4987294;28;20567;-75
2021/07/26 00:46:28;;;;;;;3.80;2.58;;;;;;;;;;5007142;28;20490;-75
2021/07/26 00:48:55;;;;;;;3.38;2.08;;;;;;;;;;5007626;28;20065;-76
2021/07/26 00:51:22;;;;;;;4.18;2.70;;;;;;;;;;5000074;28;20120;-76
2021/07/26 00:53:49;;;;;;;3.50;2.58;;;;;;;;;;5018963;28;20119;-76
2021/07/26 00:56:16;;;;;;;4.03;2.55;;;;;;;;;;5006839;28;20025;-76
2021/07/26 00:58:43;;;;;;;4.20;2.53;;;;;;;;;;5002523;28;20049;-76
2021/07/26 01:01:09;;;;;;;4.47;2.65;;;;;;;;;;5009894;28;20046;-74
2021/07/26 01:03:36;;;;;;;4.20;2.45;;;;;;;;;;4997752;28;20054;-74
2021/07/26 01:06:03;;;;;;;4.07;2.67;;;;;;;;;;5016719;28;20065;-75
2021/07/26 01:08:29;;;;;;;5.28;3.00;;;;;;;;;;5011513;28;20054;-74
2021/07/26 01:10:56;;;;;;;3.78;2.50;;;;;;;;;;5013852;28;20057;-74
2021/07/26 01:13:25;;;;;;;3.13;2.45;;;;;;;;;;5009488;28;20094;-75
2021/07/26 01:15:51;;;;;;;5.10;2.63;;;;;;;;;;5005262;28;20069;-75
2021/07/26 01:18:18;;;;;;;3.10;2.40;;;;;;;;;;4990053;28;20065;-75
2021/07/26 01:20:45;;;;;;;3.78;2.35;;;;;;;;;;5014738;28;20061;-75
2021/07/26 01:23:11;;;;;;;3.05;2.42;;;;;;;;;;4997505;28;20491;-75
2021/07/26 01:25:38;;;;;;;4.25;2.70;;;;;;;;;;5005512;28;20062;-75
2021/07/26 01:28:05;;;;;;;4.07;2.67;;;;;;;;;;5005461;28;20058;-74
2021/07/26 01:30:31;;;;;;;4.35;2.70;;;;;;;;;;5002427;28;20057;-75
2021/07/26 01:32:58;;;;;;;3.55;2.28;;;;;;;;;;5002603;28;20077;-75
2021/07/26 01:35:24;;;;;;;3.22;2.45;;;;;;;;;;5009261;28;20058;-75
2021/07/26 01:37:51;;;;;;;5.00;2.75;;;;;;;;;;5015053;28;20109;-75
2021/07/26 01:40:17;;;;;;;2.90;2.05;;;;;;;;;;5012770;28;20053;-75
2021/07/26 01:42:44;;;;;;;3.67;2.50;;;;;;;;;;5008349;28;20488;-75
2021/07/26 01:45:11;;;;;;;4.57;2.38;;;;;;;;;;5009847;28;20054;-75
2021/07/26 01:47:44;;;;;;;4.57;3.00;;;;;;;;;;5014666;28;20081;-74
2021/07/26 01:50:12;;;;;;;3.22;2.40;;;;;;;;;;5012209;28;20038;-74
2021/07/26 01:52:39;;;;;;;2.50;1.88;;;;;;;;;;5020244;28;20053;-74
2021/07/26 01:55:06;;;;;;;4.53;2.42;;;;;;;;;;5008721;28;20068;-75
2021/07/26 01:57:32;;;;;;;4.03;2.72;;;;;;;;;;5007500;28;20529;-75
2021/07/26 01:59:58;;;;;;;5.40;2.78;;;;;;;;;;5012289;28;20497;-75
2021/07/26 02:02:26;;;;;;;2.95;2.40;;;;;;;;;;5008722;28;20060;-75
2021/07/26 02:04:52;;;;;;;4.75;2.28;;;;;;;;;;5022424;28;20097;-74
2021/07/26 02:07:19;;;;;;;3.75;2.92;;;;;;;;;;5012297;28;20054;-74
2021/07/26 02:09:45;;;;;;;3.47;2.25;;;;;;;;;;5014402;28;20056;-73
2021/07/26 02:12:12;;;;;;;3.83;2.40;;;;;;;;;;5016153;28;20493;-74
2021/07/26 02:14:38;;;;;;;4.15;2.58;;;;;;;;;;5009694;28;22095;-74
2021/07/26 02:17:04;;;;;;;4.32;2.50;;;;;;;;;;5009953;28;20069;-74
2021/07/26 02:19:31;;;;;;;3.17;2.05;;;;;;;;;;5011022;28;20070;-75
2021/07/26 02:21:57;;;;;;;4.35;2.40;;;;;;;;;;4996047;28;20058;-74
2021/07/26 02:24:23;;;;;;;3.50;2.65;;;;;;;;;;4996017;28;20111;-75
2021/07/26 02:26:50;;;;;;;4.43;2.65;;;;;;;;;;5016294;28;20058;-75
2021/07/26 02:29:16;;;;;;;3.92;2.70;;;;;;;;;;5006843;28;20057;-75
2021/07/26 02:31:43;;;;;;;3.97;2.35;;;;;;;;;;5020366;28;20065;-75
2021/07/26 02:34:09;;;;;;;3.17;2.40;;;;;;;;;;5010305;28;20073;-75
2021/07/26 02:36:38;;;;;;;3.80;2.40;;;;;;;;;;5012343;28;20062;-75
2021/07/26 02:39:04;;;;;;;3.95;2.92;;;;;;;;;;5015633;28;20053;-75
2021/07/26 02:41:31;;;;;;;5.97;2.55;;;;;;;;;;4989974;28;20056;-74
2021/07/26 02:43:57;;;;;;;4.75;2.65;;;;;;;;;;5006410;28;20076;-74
2021/07/26 02:46:24;;;;;;;4.47;2.60;;;;;;;;;;4998873;28;20096;-75
2021/07/26 02:48:50;;;;;;;5.00;2.60;;;;;;;;;;5011668;28;20081;-75
2021/07/26 02:51:17;;;;;;;3.47;2.40;;;;;;;;;;4992836;28;20061;-75
2021/07/26 02:53:43;;;;;;;3.22;2.35;;;;;;;;;;4990596;28;20069;-75
2021/07/26 02:56:10;;;;;;;3.88;2.72;;;;;;;;;;5004117;28;20054;-75
2021/07/26 02:58:37;;;;;;;4.35;2.70;;;;;;;;;;4990995;28;20057;-74
2021/07/26 03:01:04;;;;;;;4.35;2.70;;;;;;;;;;5011880;28;20123;-75
2021/07/26 03:03:30;;;;;;;4.32;2.45;;;;;;;;;;5016409;28;20068;-75
2021/07/26 03:05:57;;;;;;;3.70;2.40;;;;;;;;;;5019190;28;20221;-75
2021/07/26 03:08:23;;;;;;;4.38;2.30;;;;;;;;;;5009241;28;20100;-76
2021/07/26 03:10:50;;;;;;;3.72;2.35;;;;;;;;;;4992151;28;20061;-73
2021/07/26 03:13:17;;;;;;;3.67;2.25;;;;;;;;;;5013791;28;20054;-74
2021/07/26 03:15:43;;;;;;;3.40;2.20;;;;;;;;;;5008556;28;20054;-75
2021/07/26 03:18:10;;;;;;;6.25;2.47;;;;;;;;;;5009310;28;20050;-75
2021/07/26 03:20:36;;;;;;;3.80;2.40;;;;;;;;;;5009475;28;20069;-75
2021/07/26 03:23:09;;;;;;;3.72;1.92;;;;;;;;;;5008325;28;20498;-76
2021/07/26 03:25:39;;;;;;;4.95;2.92;;;;;;;;;;5000091;28;20718;-75
2021/07/26 03:28:05;;;;;;;4.25;2.80;;;;;;;;;;5008320;28;20050;-74
2021/07/26 03:30:32;;;;;;;3.88;2.70;;;;;;;;;;5007391;28;20073;-74
2021/07/26 03:32:58;;;;;;;4.22;2.92;;;;;;;;;;5009839;28;20061;-74
2021/07/26 03:35:25;;;;;;;3.80;2.50;;;;;;;;;;5004140;28;20119;-74
2021/07/26 03:37:52;;;;;;;3.35;2.10;;;;;;;;;;5009564;28;20061;-75
2021/07/26 03:40:22;;;;;;;3.40;2.40;;;;;;;;;;5007205;28;20046;-75
2021/07/26 03:42:49;;;;;;;4.22;2.45;;;;;;;;;;5001670;28;20096;-75
2021/07/26 03:45:16;;;;;;;3.15;2.20;;;;;;;;;;4992508;28;20120;-75
2021/07/26 03:47:43;;;;;;;4.15;2.53;;;;;;;;;;5017012;28;20579;-75
2021/07/26 03:50:10;;;;;;;3.30;2.50;;;;;;;;;;5014747;28;20041;-75
2021/07/26 03:52:43;;;;;;;3.72;2.40;;;;;;;;;;5011754;28;20049;-75
2021/07/26 03:55:10;;;;;;;4.25;2.65;;;;;;;;;;5002214;28;20092;-75
2021/07/26 03:57:36;;;;;;;3.72;2.50;;;;;;;;;;5001461;28;20149;-75
2021/07/26 04:00:03;;;;;;;5.00;2.60;;;;;;;;;;5020229;28;20505;-75
2021/07/26 04:02:29;;;;;;;3.75;2.63;;;;;;;;;;5001920;28;20070;-74
2021/07/26 04:04:56;;;;;;;4.40;2.70;;;;;;;;;;5011178;28;20069;-75
2021/07/26 04:07:25;;;;;;;4.07;2.38;;;;;;;;;;5006400;28;20060;-75
2021/07/26 04:09:58;;;;;;;3.97;2.75;;;;;;;;;;4998109;28;20085;-75
2021/07/26 04:12:27;;;;;;;4.30;2.53;;;;;;;;;;4986964;28;20038;-75
2021/07/26 04:14:53;;;;;;;5.00;2.60;;;;;;;;;;5012099;28;20514;-75
2021/07/26 04:17:20;;;;;;;4.35;2.65;;;;;;;;;;5007890;28;20061;-76
2021/07/26 04:19:46;;;;;;;5.18;3.00;;;;;;;;;;5009236;28;20171;-75
2021/07/26 04:22:13;;;;;;;4.30;2.47;;;;;;;;;;5006073;28;20459;-75
2021/07/26 04:24:39;;;;;;;5.93;2.60;;;;;;;;;;5007709;28;20590;-76
2021/07/26 04:27:05;;;;;;;3.97;2.70;;;;;;;;;;5015783;28;20054;-75
2021/07/26 04:29:32;;;;;;;4.75;2.83;;;;;;;;;;5005030;28;20077;-75
2021/07/26 04:31:58;;;;;;;4.28;2.33;;;;;;;;;;5014986;28;20072;-75
2021/07/26 04:34:24;;;;;;;3.72;2.53;;;;;;;;;;5006692;28;20069;-75
2021/07/26 04:36:51;;;;;;;4.07;2.13;;;;;;;;;;5010021;28;20088;-75
2021/07/26 04:39:18;;;;;;;4.78;2.78;;;;;;;;;;5006637;28;20580;-76
2021/07/26 04:41:44;;;;;;;3.65;2.60;;;;;;;;;;5005295;28;20068;-75
2021/07/26 04:44:11;;;;;;;4.97;2.90;;;;;;;;;;5001473;28;20034;-75
2021/07/26 04:46:37;;;;;;;4.85;2.60;;;;;;;;;;5013381;28;20058;-75
2021/07/26 04:49:03;;;;;;;3.78;2.58;;;;;;;;;;5008965;28;20061;-75
2021/07/26 04:51:30;;;;;;;4.35;2.60;;;;;;;;;;5007048;28;20057;-74
2021/07/26 04:53:56;;;;;;;5.25;2.80;;;;;;;;;;5004741;28;20506;-74
2021/07/26 04:56:22;;;;;;;3.85;2.50;;;;;;;;;;5015940;28;20060;-75
2021/07/26 04:58:49;;;;;;;4.72;2.90;;;;;;;;;;5007519;28;20038;-75
2021/07/26 05:01:15;;;;;;;3.42;2.60;;;;;;;;;;5008604;28;20065;-75
2021/07/26 05:03:41;;;;;;;5.60;3.13;;;;;;;;;;5005289;28;20065;-74
2021/07/26 05:06:08;;;;;;;5.80;3.00;;;;;;;;;;5008904;28;20073;-74
2021/07/26 05:08:34;;;;;;;3.90;2.22;;;;;;;;;;5008813;28;20057;-75
2021/07/26 05:11:01;;;;;;;3.88;2.88;;;;;;;;;;5018861;28;20072;-74
2021/07/26 05:13:27;;;;;;;4.38;2.85;;;;;;;;;;5017627;28;20067;-75
2021/07/26 05:15:54;;;;;;;5.03;3.00;;;;;;;;;;5008607;28;20619;-73
2021/07/26 05:18:20;;;;;;;6.10;3.13;;;;;;;;;;5009020;28;20057;-75
2021/07/26 05:20:47;;;;;;;3.67;2.83;;;;;;;;;;5016310;28;20033;-75
2021/07/26 05:23:16;;;;;;;4.25;2.70;;;;;;;;;;4997117;28;20065;-77
2021/07/26 05:25:46;;;;;;;4.60;2.95;;;;;;;;;;5007962;28;20050;-75
2021/07/26 05:28:13;;;;;;;3.67;2.83;;;;;;;;;;5017570;28;20340;-75
2021/07/26 05:30:39;;;;;;;5.82;3.10;;;;;;;;;;5008770;28;20104;-75
2021/07/26 05:33:06;;;;;;;3.83;2.80;;;;;;;;;;5005966;28;20080;-75
2021/07/26 05:35:33;;;;;;;4.45;2.85;;;;;;;;;;4994361;28;20167;-75
2021/07/26 05:38:03;;;;;;;5.05;3.00;;;;;;;;;;5001648;28;20057;-74
2021/07/26 05:40:33;;;;;;;6.30;3.35;;;;;;;;;;5007925;28;20034;-75
2021/07/26 05:43:00;;;;;;;4.95;3.03;;;;;;;;;;5003765;28;20065;-74
2021/07/26 05:45:27;;;;;;;4.43;2.92;;;;;;;;;;5012261;28;20061;-75
2021/07/26 05:47:53;;;;;;;4.32;2.95;;;;;;;;;;5011516;28;20069;-75
2021/07/26 05:50:20;;;;;;;5.32;3.03;;;;;;;;;;5014299;28;20083;-74
2021/07/26 05:52:47;;;;;;;4.72;3.15;;;;;;;;;;5002163;28;20490;-74
2021/07/26 05:55:13;;;;;;;4.75;3.33;;;;;;;;;;5002294;28;20820;-74
2021/07/26 05:57:45;;;;;;;5.00;2.67;;;;;;;;;;5006842;28;20049;-74
2021/07/26 06:00:14;;;;;;;4.70;3.08;;;;;;;;;;4999038;28;20061;-74
2021/07/26 06:02:40;;;;;;;4.35;3.38;;;;;;;;;;4999250;28;20085;-74
2021/07/26 06:05:07;;;;;;;4.35;3.03;;;;;;;;;;5002334;28;20069;-74
2021/07/26 06:07:33;;;;;;;5.18;3.33;;;;;;;;;;5017755;28;20121;-74
2021/07/26 06:09:59;;;;;;;4.15;2.90;;;;;;;;;;5004012;28;20132;-74
2021/07/26 06:12:27;;;;;;;4.35;3.30;;;;;;;;;;5001390;28;20069;-74
2021/07/26 06:14:53;;;;;;;5.65;3.38;;;;;;;;;;5015630;28;20061;-74
2021/07/26 06:17:20;;;;;;;3.97;3.10;;;;;;;;;;4999969;28;20066;-74
2021/07/26 06:19:46;;;;;;;5.47;3.42;;;;;;;;;;5006082;28;20486;-74
2021/07/26 06:22:16;;;;;;;5.75;3.47;;;;;;;;;;5015256;28;20073;-74
2021/07/26 06:24:42;;;;;;;4.63;3.45;;;;;;;;;;5004919;28;21229;-74
2021/07/26 06:27:09;;;;;;;5.18;3.50;;;;;;;;;;4999604;28;20069;-74
2021/07/26 06:29:36;;;;;;;4.65;3.40;;;;;;;;;;5013821;28;20054;-74
2021/07/26 06:32:02;;;;;;;4.78;3.22;;;;;;;;;;5016422;28;20061;-74
2021/07/26 06:34:29;;;;;;;4.82;3.42;;;;;;;;;;5014318;28;20054;-75
2021/07/26 06:36:56;;;;;;;5.00;3.45;;;;;;;;;;4991646;28;20065;-74
2021/07/26 06:39:22;;;;;;;5.10;3.53;;;;;;;;;;5012562;28;20491;-75
2021/07/26 06:41:49;;;;;;;6.20;3.63;;;;;;;;;;5010343;28;20112;-74
2021/07/26 06:44:15;;;;;;;5.82;3.75;;;;;;;;;;4997829;28;20118;-75
2021/07/26 06:46:42;;;;;;;5.45;3.20;;;;;;;;;;5009016;28;20042;-74
2021/07/26 06:49:08;;;;;;;5.30;3.78;;;;;;;;;;5013969;28;20076;-74
2021/07/26 06:51:34;;;;;;;5.05;3.92;;;;;;;;;;5010107;28;20493;-75
2021/07/26 06:54:01;;;;;;;4.05;3.13;;;;;;;;;;5008179;28;20098;-75
2021/07/26 06:56:27;;;;;;;6.13;3.40;;;;;;;;;;4982426;28;20152;-75
2021/07/26 06:58:53;;;;;;;6.97;3.92;;;;;;;;;;5014609;28;20064;-75
2021/07/26 07:01:20;;;;;;;5.72;3.40;;;;;;;;;;5013715;28;20587;-76
2021/07/26 07:03:47;;;;;;;5.78;3.60;;;;;;;;;;5016296;28;20066;-75
2021/07/26 07:06:14;;;;;;;4.55;3.70;;;;;;;;;;4999338;28;20069;-75
2021/07/26 07:08:41;;;;;;;6.03;3.80;;;;;;;;;;5000742;28;20509;-75
2021/07/26 07:11:08;;;;;;;6.32;4.13;;;;;;;;;;5020393;28;20087;-75
2021/07/26 07:13:35;;;;;;;5.40;3.78;;;;;;;;;;5007362;28;20411;-75
2021/07/26 07:16:02;;;;;;;5.43;3.25;;;;;;;;;;5001191;28;20407;-75
2021/07/26 07:18:29;;;;;;;4.78;3.50;;;;;;;;;;5008052;28;21201;-75
2021/07/26 07:20:55;;;;;;;6.18;3.80;;;;;;;;;;5002922;28;20084;-75
2021/07/26 07:23:22;;;;;;;7.53;4.07;;;;;;;;;;5007050;28;20066;-76
2021/07/26 07:25:48;;;;;;;5.75;4.10;;;;;;;;;;5012126;28;20500;-75
2021/07/26 07:28:14;;;;;;;6.38;4.30;;;;;;;;;;5005934;28;20544;-76
2021/07/26 07:30:41;;;;;;;5.68;4.25;;;;;;;;;;5009261;28;20641;-74
2021/07/26 07:33:07;;;;;;;5.65;3.92;;;;;;;;;;5011462;28;20053;-75
2021/07/26 07:35:34;;;;;;;6.25;4.30;;;;;;;;;;5005305;28;20061;-75
2021/07/26 07:38:00;;;;;;;5.65;4.65;;;;;;;;;;5018552;28;20064;-74
2021/07/26 07:40:28;;;;;;;5.25;4.15;;;;;;;;;;5005985;28;20084;-75
2021/07/26 07:42:54;;;;;;;6.20;4.47;;;;;;;;;;5001072;28;20070;-75
2021/07/26 07:45:20;;;;;;;6.55;4.55;;;;;;;;;;5000531;28;20054;-76
2021/07/26 07:47:47;;;;;;;7.03;4.18;;;;;;;;;;4997943;28;20057;-75
2021/07/26 07:50:15;;;;;;;8.90;4.60;;;;;;;;;;5012403;28;20461;-75
2021/07/26 07:52:42;;;;;;;5.22;4.00;;;;;;;;;;5004291;28;20400;-75
2021/07/26 07:55:09;;;;;;;4.95;4.00;;;;;;;;;;5010194;28;20440;-76
2021/07/26 07:57:36;;;;;;;7.20;4.85;;;;;;;;;;5012807;28;20053;-75
2021/07/26 08:00:06;;;;;;;5.55;4.50;;;;;;;;;;5012840;28;20107;-75
2021/07/26 08:02:33;;;;;;;4.88;4.05;;;;;;;;;;5013850;28;20061;-76
2021/07/26 08:04:59;;;;;;;5.88;4.78;;;;;;;;;;5008729;28;20064;-76
2021/07/26 08:07:25;;;;;;;5.85;4.60;;;;;;;;;;5006682;28;20592;-75
2021/07/26 08:09:52;;;;;;;6.10;4.63;;;;;;;;;;5010026;28;20054;-75
2021/07/26 08:12:18;;;;;;;5.47;4.18;;;;;;;;;;4993346;28;20065;-75
2021/07/26 08:14:45;;;;;;;5.65;4.30;;;;;;;;;;4983764;28;20080;-76
2021/07/26 08:17:12;;;;;;;6.50;4.47;;;;;;;;;;4981719;28;20038;-74
2021/07/26 08:19:41;;;;;;;6.93;4.25;;;;;;;;;;5007256;28;20062;-77
2021/07/26 08:22:07;;;;;;;6.70;4.60;;;;;;;;;;5009549;28;20568;-74
2021/07/26 08:24:34;;;;;;;8.02;5.28;;;;;;;;;;5008456;28;20053;-74
2021/07/26 08:27:00;;;;;;;6.10;4.97;;;;;;;;;;5005886;28;20096;-74
2021/07/26 08:29:26;;;;;;;5.95;5.03;;;;;;;;;;5008380;28;20088;-74
2021/07/26 08:31:53;;;;;;;6.35;4.60;;;;;;;;;;5012220;28;20065;-74
2021/07/26 08:34:19;;;;;;;6.10;5.15;;;;;;;;;;5001597;28;20066;-73
2021/07/26 08:36:45;;;;;;;6.32;4.47;;;;;;;;;;5014657;28;20470;-75
2021/07/26 08:39:12;;;;;;;6.13;4.85;;;;;;;;;;5011832;28;20076;-75
2021/07/26 08:41:38;;;;;;;6.28;4.38;;;;;;;;;;5007913;28;20061;-74
2021/07/26 08:44:06;;;;;;;6.72;4.78;;;;;;;;;;5005486;28;20501;-74
2021/07/26 08:46:32;;;;;;;5.85;4.50;;;;;;;;;;4994930;28;20050;-75
2021/07/26 08:48:59;;;;;;;8.02;5.15;;;;;;;;;;5000481;28;20116;-75
2021/07/26 08:51:26;;;;;;;6.20;4.32;;;;;;;;;;5005720;28;20053;-75
2021/07/26 08:53:53;;;;;;;7.05;5.22;;;;;;;;;;5008052;28;20072;-75
2021/07/26 08:56:20;;;;;;;5.32;4.32;;;;;;;;;;5007788;28;20131;-75
2021/07/26 08:58:47;;;;;;;7.40;5.43;;;;;;;;;;5001995;28;20134;-76
2021/07/26 09:01:15;;;;;;;6.95;5.20;;;;;;;;;;5009687;28;20053;-76
2021/07/26 09:03:42;;;;;;;5.82;4.93;;;;;;;;;;5003864;28;20462;-74
2021/07/26 09:06:09;;;;;;;6.50;5.10;;;;;;;;;;5017828;28;20045;-74
2021/07/26 09:08:36;;;;;;;6.05;4.63;;;;;;;;;;4969108;28;20077;-74
2021/07/26 09:11:03;;;;;;;6.10;5.07;;;;;;;;;;5013193;28;20505;-74
2021/07/26 09:13:34;;;;;;;7.35;5.18;;;;;;;;;;5010998;28;20053;-74
2021/07/26 09:16:16;;;;;;;5.72;4.70;;;;;;;;;;5011560;28;20116;-74
2021/07/26 09:18:43;;;;;;;7.82;5.10;;;;;;;;;;4996615;28;20339;-74
2021/07/26 09:21:09;;;;;;;7.22;5.55;;;;;;;;;;5005823;28;20107;-75
2021/07/26 09:23:38;;;;;;;8.70;5.57;;;;;;;;;;5010883;28;20441;-75
2021/07/26 09:26:23;;;;;;;6.45;5.50;;;;;;;;;;5011136;28;20065;-74
2021/07/26 09:28:49;;;;;;;6.35;5.15;;;;;;;;;;5012299;28;21232;-75
2021/07/26 09:31:16;;;;;;;9.00;5.53;;;;;;;;;;5009516;28;20537;-75
2021/07/26 09:33:43;;;;;;;7.35;5.13;;;;;;;;;;4991158;28;20069;-75
2021/07/26 09:36:13;;;;;;;6.20;5.47;;;;;;;;;;5006904;28;20108;-74
2021/07/26 09:38:49;;;;;;;5.85;5.13;;;;;;;;;;5006421;28;22128;-74
2021/07/26 09:41:18;;;;;;;7.15;5.60;;;;;;;;;;5014603;28;20044;-76
2021/07/26 09:43:44;;;;;;;5.93;5.30;;;;;;;;;;5009265;28;20127;-74
2021/07/26 09:46:27;;;;;;;7.32;5.43;;;;;;;;;;5009363;28;20111;-74
2021/07/26 09:49:09;;;;;;;7.72;5.72;;;;;;;;;;5009707;28;20651;-74
2021/07/26 09:51:36;;;;;;;8.32;6.57;;;;;;;;;;5006204;28;20520;-75
2021/07/26 09:54:02;;;;;;;7.80;6.47;;;;;;;;;;5015987;28;20057;-75
2021/07/26 09:56:33;;;;;;;7.80;6.47;;;;;;;;;;5014810;28;20084;-75
2021/07/26 09:59:01;;;;;;;7.47;6.10;;;;;;;;;;5007327;28;20610;-75
2021/07/26 10:01:27;;;;;;;5.93;5.00;;;;;;;;;;5005736;28;20523;-75
2021/07/26 10:03:54;;;;;;;8.32;6.35;;;;;;;;;;4990858;28;20147;-75
2021/07/26 10:06:21;;;;;;;7.72;5.60;;;;;;;;;;5000494;28;20070;-75
2021/07/26 10:08:50;;;;;;;7.47;5.70;;;;;;;;;;5011557;28;20068;-76
2021/07/26 10:11:17;;;;;;;6.45;5.63;;;;;;;;;;5002750;28;20131;-76
2021/07/26 10:13:47;;;;;;;7.28;6.18;;;;;;;;;;4999960;28;20088;-75
2021/07/26 10:16:14;;;;;;;7.53;6.65;;;;;;;;;;5011798;28;20062;-75
2021/07/26 10:18:54;;;;;;;8.18;6.18;;;;;;;;;;5043837;27;21170;-75
2021/07/26 10:21:25;;;;;;;7.40;6.03;;;;;;;;;;5020511;28;20065;-75
2021/07/26 10:23:52;;;;;;;9.97;7.30;;;;;;;;;;5023559;28;20046;-75
2021/07/26 10:26:20;;;;;;;7.35;6.55;;;;;;;;;;5016797;28;20471;-75
2021/07/26 10:28:54;;;;;;;9.63;6.70;;;;;;;;;;5014896;28;20415;-75
2021/07/26 10:31:35;;;;;;;8.52;6.82;;;;;;;;;;5041953;28;20053;-76
2021/07/26 10:34:06;;;;;;;7.70;6.82;;;;;;;;;;5015444;28;20513;-75
2021/07/26 10:36:42;;;;;;;7.50;6.47;;;;;;;;;;5022225;28;20077;-76
2021/07/26 10:39:09;;;;;;;9.23;7.18;;;;;;;;;;5025964;28;20073;-76
2021/07/26 10:41:48;;;;;;;8.35;6.72;;;;;;;;;;5038705;28;20662;-75
2021/07/26 10:44:18;;;;;;;7.13;5.85;;;;;;;;;;5025621;28;20110;-76
2021/07/26 10:46:57;;;;;;;7.57;6.53;;;;;;;;;;5022595;28;20053;-74
2021/07/26 10:49:35;;;;;;;8.48;6.40;;;;;;;;;;5023297;28;20077;-74
2021/07/26 10:52:02;;;;;;;7.28;5.68;;;;;;;;;;5036327;28;20069;-75
2021/07/26 10:54:32;;;;;;;9.23;6.95;;;;;;;;;;5026153;28;20049;-74
2021/07/26 10:57:19;;;;;;;9.10;6.90;;;;;;;;;;5043309;28;20069;-74
2021/07/26 11:00:04;;;;;;;8.98;7.20;;;;;;;;;;5036901;28;20071;-74
2021/07/26 11:02:35;;;;;;;8.30;6.95;;;;;;;;;;5034790;28;20522;-74
2021/07/26 11:05:20;;;;;;;7.57;6.78;;;;;;;;;;5044861;28;20126;-75
2021/07/26 11:07:47;;;;;;;8.32;6.85;;;;;;;;;;5036940;28;20457;-75
2021/07/26 11:10:31;;;;;;;9.48;7.18;;;;;;;;;;5033334;28;20102;-74
2021/07/26 11:12:58;;;;;;;8.15;6.75;;;;;;;;;;5025629;28;21078;-75
2021/07/26 11:15:24;;;;;;;9.35;7.20;;;;;;;;;;5033198;28;20080;-75
2021/07/26 11:18:16;;;;;;;8.65;5.95;;;;;;;;;;5043053;28;20096;-76
2021/07/26 11:21:01;;;;;;;9.80;7.32;;;;;;;;;;5039579;28;20299;-75
2021/07/26 11:23:44;;;;;;;9.00;7.53;;;;;;;;;;5036961;28;20029;-76
2021/07/26 11:26:15;;;;;;;8.55;6.63;;;;;;;;;;5038541;28;20060;-76
2021/07/26 11:28:41;;;;;;;;;;;;;;;;;;5030311;28;21276;-75
2021/07/26 11:31:08;;;;;;;9.70;7.40;;;;;;;;;;5022804;28;19944;-75
2021/07/26 11:33:34;;;;;;;8.90;7.35;;;;;;;;;;5030049;28;20068;-75
2021/07/26 11:36:03;;;;;;;8.55;7.53;;;;;;;;;;5024253;28;20056;-75
2021/07/26 11:38:30;;;;;;;7.47;5.97;;;;;;;;;;5023364;28;20123;-74
2021/07/26 11:40:57;;;;;;;8.73;7.53;;;;;;;;;;5028925;28;20064;-74
2021/07/26 11:43:33;;;;;;;6.45;5.43;;;;;;;;;;5029784;28;20038;-75
2021/07/26 11:46:00;;;;;;;8.65;7.72;;;;;;;;;;5018388;28;20056;-75
2021/07/26 11:48:27;;;;;;;10.07;7.97;;;;;;;;;;5028888;28;20563;-74
2021/07/26 11:50:53;;;;;;;7.05;5.85;;;;;;;;;;5029091;28;20539;-75
2021/07/26 11:53:27;;;;;;;8.75;7.22;;;;;;;;;;5028886;28;20446;-75
2021/07/26 11:55:53;;;;;;;10.25;7.70;;;;;;;;;;5026751;28;20112;-74
2021/07/26 11:58:26;;;;;;;10.32;7.60;;;;;;;;;;5028521;28;20107;-75
2021/07/26 12:00:53;;;;;;;9.10;7.60;;;;;;;;;;5023092;28;20070;-75
2021/07/26 12:03:21;;;;;;;8.48;6.82;;;;;;;;;;5028702;28;20115;-75
2021/07/26 12:05:48;;;;;;;9.55;8.15;;;;;;;;;;5028655;28;20100;-75
2021/07/26 12:08:18;;;;;;;8.88;7.88;;;;;;;;;;5028835;28;20057;-76
2021/07/26 12:10:46;;;;;;;8.90;7.13;;;;;;;;;;5025752;28;20425;-75
2021/07/26 12:13:16;;;;;;;9.68;6.60;;;;;;;;;;5024154;28;20061;-75
2021/07/26 12:15:43;;;;;;;5.93;4.95;;;;;;;;;;5019043;28;20050;-75
2021/07/26 12:18:11;;;;;;;11.18;7.68;;;;;;;;;;5027708;28;20131;-75
2021/07/26 12:20:38;;;;;;;8.18;7.38;;;;;;;;;;5028872;28;20057;-74
2021/07/26 12:23:15;;;;;;;9.55;7.63;;;;;;;;;;5029060;28;20037;-75
2021/07/26 12:25:42;;;;;;;9.52;7.22;;;;;;;;;;5026657;28;20506;-76
2021/07/26 12:28:09;;;;;;;8.07;5.93;;;;;;;;;;5030154;28;20516;-75
2021/07/26 12:30:36;;;;;;;8.57;7.10;;;;;;;;;;5027136;28;20076;-75
2021/07/26 12:33:03;;;;;;;8.68;7.18;;;;;;;;;;5027397;28;20064;-74
2021/07/26 12:35:30;;;;;;;6.18;4.82;;;;;;;;;;5025621;28;20061;-75
2021/07/26 12:38:11;;;;;;;7.30;6.10;;;;;;;;;;5028137;28;20112;-75
2021/07/26 12:40:40;;;;;;;9.40;6.97;;;;;;;;;;5019547;28;20061;-75
2021/07/26 12:43:10;;;;;;;7.55;5.55;;;;;;;;;;5025010;28;20064;-75
2021/07/26 12:45:38;;;;;;;10.95;8.07;;;;;;;;;;5025888;28;20111;-75
2021/07/26 12:48:30;;;;;;;8.85;6.97;;;;;;;;;;5025345;28;20053;-75
2021/07/26 12:50:58;;;;;;;9.25;7.30;;;;;;;;;;5022902;28;21267;-76
2021/07/26 12:53:25;;;;;;;10.60;7.78;;;;;;;;;;5028138;28;20061;-75
2021/07/26 12:55:52;;;;;;;9.80;7.50;;;;;;;;;;5056785;28;20057;-74
2021/07/26 12:58:19;;;;;;;8.00;6.15;;;;;;;;;;5026874;28;20141;-76
2021/07/26 13:00:46;;;;;;;9.95;7.93;;;;;;;;;;5026987;28;20067;-75
2021/07/26 13:03:13;;;;;;;10.15;7.57;;;;;;;;;;5021415;28;20053;-75
2021/07/26 13:05:40;;;;;;;9.70;7.55;;;;;;;;;;5028139;28;20065;-75
2021/07/26 13:08:07;;;;;;;9.38;7.85;;;;;;;;;;5027182;28;20066;-75
2021/07/26 13:10:34;;;;;;;7.47;6.38;;;;;;;;;;5022027;28;20041;-74
2021/07/26 13:13:00;;;;;;;9.80;8.27;;;;;;;;;;5026663;28;20599;-75
2021/07/26 13:15:28;;;;;;;7.47;6.60;;;;;;;;;;5027528;28;20068;-75
2021/07/26 13:17:55;;;;;;;11.98;8.35;;;;;;;;;;5026487;28;20045;-75
2021/07/26 13:20:21;;;;;;;8.93;7.18;;;;;;;;;;5024463;28;20454;-75
2021/07/26 13:22:48;;;;;;;9.60;6.60;;;;;;;;;;5056693;28;20131;-75
2021/07/26 13:25:14;;;;;;;10.60;8.30;;;;;;;;;;5037834;28;20064;-74
2021/07/26 13:27:40;;;;;;;10.35;7.63;;;;;;;;;;5023475;28;20072;-75
2021/07/26 13:30:07;;;;;;;10.68;7.85;;;;;;;;;;5028267;28;20418;-74
2021/07/26 13:32:34;;;;;;;10.07;7.68;;;;;;;;;;5026710;28;20072;-75
2021/07/26 13:35:00;;;;;;;10.48;7.63;;;;;;;;;;5020897;28;20505;-76
2021/07/26 13:37:27;;;;;;;8.23;6.63;;;;;;;;;;5024934;28;20061;-74
2021/07/26 13:39:53;;;;;;;10.07;8.55;;;;;;;;;;5014502;28;20058;-75
2021/07/26 13:42:20;;;;;;;12.07;8.63;;;;;;;;;;5024705;28;20061;-76
2021/07/26 13:44:47;;;;;;;10.75;8.25;;;;;;;;;;5028210;28;20075;-76
2021/07/26 13:47:13;;;;;;;10.05;8.68;;;;;;;;;;5026246;28;20068;-74
2021/07/26 13:49:39;;;;;;;11.45;8.80;;;;;;;;;;5027051;28;20493;-76
2021/07/26 13:52:06;;;;;;;10.52;7.85;;;;;;;;;;5027383;28;20073;-75
2021/07/26 13:54:34;;;;;;;10.63;8.40;;;;;;;;;;5017667;28;20057;-76
2021/07/26 13:57:01;;;;;;;9.68;8.45;;;;;;;;;;5058524;28;20073;-75
2021/07/26 13:59:27;;;;;;;9.93;8.65;;;;;;;;;;5028967;28;20057;-76
2021/07/26 14:01:54;;;;;;;10.93;8.73;;;;;;;;;;5025261;28;20037;-75
2021/07/26 14:04:20;;;;;;;7.47;6.68;;;;;;;;;;5029960;28;20068;-76
2021/07/26 14:06:47;;;;;;;10.73;8.45;;;;;;;;;;5031669;28;20034;-75
2021/07/26 14:09:13;;;;;;;11.30;9.02;;;;;;;;;;5044151;28;20014;-75
2021/07/26 14:11:40;;;;;;;9.75;8.75;;;;;;;;;;5040901;28;20034;-76
2021/07/26 14:14:06;;;;;;;11.02;8.05;;;;;;;;;;5041803;28;20060;-76
2021/07/26 14:16:33;;;;;;;10.00;7.70;;;;;;;;;;5040391;28;20029;-76
2021/07/26 14:18:59;;;;;;;10.18;8.88;;;;;;;;;;5034376;28;20041;-75
2021/07/26 14:21:26;;;;;;;10.32;8.07;;;;;;;;;;5023371;28;20060;-76
2021/07/26 14:23:52;;;;;;;11.88;8.98;;;;;;;;;;5027997;28;20494;-75
2021/07/26 14:26:19;;;;;;;9.40;7.97;;;;;;;;;;5025623;28;20072;-76
2021/07/26 14:28:45;;;;;;;10.20;8.50;;;;;;;;;;5028245;28;20045;-76
2021/07/26 14:31:12;;;;;;;9.20;8.15;;;;;;;;;;5027489;28;20087;-75
2021/07/26 14:33:38;;;;;;;10.10;8.63;;;;;;;;;;5021223;28;20061;-75
2021/07/26 14:36:05;;;;;;;9.85;8.55;;;;;;;;;;5023534;28;20057;-75
2021/07/26 14:38:31;;;;;;;12.40;8.60;;;;;;;;;;5024087;28;20116;-74
2021/07/26 14:40:58;;;;;;;10.18;8.60;;;;;;;;;;5025144;28;20073;-75
2021/07/26 14:43:24;;;;;;;11.05;9.50;;;;;;;;;;5024641;28;20058;-75
2021/07/26 14:45:51;;;;;;;12.80;9.45;;;;;;;;;;5021489;28;20061;-75
2021/07/26 14:48:17;;;;;;;9.27;7.72;;;;;;;;;;5022551;28;20582;-75